Time;durP1;ratioP1;P1;durP2;ratioP2;P2;SDS_P1;SDS_P2;PMS_P1;PMS_P2;Temp;Humidity;BMP_temperature;BMP_pressure;BME280_temperature;BME280_humidity;BME280_pressure;Samples;Min_cycle;Max_cycle;Signal;HPM_P1;HPM_P2
2021/03/18 00:01:23;;;;;;;9.57;3.22;;;2.70;94.40;;;;;;5013779;28;20109;-72
2021/03/18 00:03:50;;;;;;;11.45;4.68;;;2.70;94.40;;;;;;5015652;28;20108;-69
2021/03/18 00:06:16;;;;;;;11.48;3.88;;;2.70;94.40;;;;;;5014710;28;20034;-71
2021/03/18 00:08:44;;;;;;;8.10;3.03;;;2.70;94.40;;;;;;5014286;28;20470;-71
2021/03/18 00:11:13;;;;;;;8.60;3.13;;;2.70;94.40;;;;;;5014103;28;20041;-72
2021/03/18 00:13:41;;;;;;;9.55;4.60;;;2.70;94.40;;;;;;5013021;28;20526;-73
2021/03/18 00:16:07;;;;;;;12.65;3.22;;;2.70;94.40;;;;;;5015364;28;20105;-81
2021/03/18 00:18:37;;;;;;;11.68;3.05;;;2.70;94.40;;;;;;5016192;28;20101;-69
2021/03/18 00:21:03;;;;;;;9.30;3.78;;;2.70;94.40;;;;;;5015566;28;20533;-69
2021/03/18 00:23:29;;;;;;;7.43;3.30;;;2.70;94.40;;;;;;5017396;28;20049;-72
2021/03/18 00:25:56;;;;;;;11.23;3.25;;;2.70;94.40;;;;;;5019395;28;20030;-69
2021/03/18 00:28:22;;;;;;;7.80;3.05;;;2.70;94.40;;;;;;5015928;28;20026;-69
2021/03/18 00:30:47;;;;;;;10.88;4.47;;;2.70;94.40;;;;;;5017960;28;20026;-71
2021/03/18 00:33:13;;;;;;;9.20;3.08;;;2.70;94.30;;;;;;5017157;28;20029;-71
2021/03/18 00:35:39;;;;;;;6.60;2.95;;;2.70;94.30;;;;;;5014310;28;20110;-73
2021/03/18 00:38:04;;;;;;;8.25;3.70;;;2.70;94.30;;;;;;5016537;28;20133;-68
2021/03/18 00:40:38;;;;;;;11.00;3.80;;;2.70;94.30;;;;;;5018179;28;20030;-65
2021/03/18 00:43:08;;;;;;;8.07;3.60;;;2.70;94.30;;;;;;5016197;28;20018;-75
2021/03/18 00:45:35;;;;;;;13.82;4.65;;;2.60;94.20;;;;;;5015029;28;20045;-75
2021/03/18 00:48:02;;;;;;;11.20;3.28;;;2.60;94.20;;;;;;5013757;28;20022;-67
2021/03/18 00:50:29;;;;;;;7.80;3.17;;;2.60;94.20;;;;;;5013898;28;20042;-69
2021/03/18 00:52:55;;;;;;;7.18;3.10;;;2.60;94.20;;;;;;5014193;28;20022;-67
2021/03/18 00:55:21;;;;;;;11.18;3.50;;;2.50;94.20;;;;;;5012995;28;20028;-68
2021/03/18 00:57:47;;;;;;;9.20;3.42;;;2.50;94.40;;;;;;5014081;28;20033;-78
2021/03/18 01:00:23;;;;;;;12.85;4.32;;;2.50;94.50;;;;;;5013749;28;20021;-69
2021/03/18 01:02:53;;;;;;;15.23;5.25;;;2.50;94.50;;;;;;5013394;28;20387;-74
2021/03/18 01:05:34;;;;;;;8.10;3.75;;;2.50;94.60;;;;;;5012724;28;20018;-69
2021/03/18 01:08:00;;;;;;;10.02;3.60;;;2.60;94.60;;;;;;5013868;28;20029;-73
2021/03/18 01:10:29;;;;;;;16.00;5.85;;;2.60;94.60;;;;;;5011524;28;20065;-67
2021/03/18 01:12:55;;;;;;;10.02;4.28;;;2.50;94.60;;;;;;5013631;28;20037;-68
2021/03/18 01:15:26;;;;;;;9.02;3.72;;;2.50;94.70;;;;;;5011692;28;20025;-70
2021/03/18 01:17:52;;;;;;;9.40;5.97;;;2.50;94.80;;;;;;5011657;28;20029;-70
2021/03/18 01:20:18;;;;;;;25.02;10.27;;;2.50;94.80;;;;;;5013274;28;20095;-68
2021/03/18 01:22:45;;;;;;;11.43;3.92;;;2.50;94.80;;;;;;5013783;28;20073;-72
2021/03/18 01:25:11;;;;;;;9.07;4.25;;;2.50;94.90;;;;;;5012463;28;20458;-69
2021/03/18 01:27:38;;;;;;;10.13;4.07;;;2.40;94.90;;;;;;5013456;28;20021;-68
2021/03/18 01:30:14;;;;;;;14.25;6.90;;;2.40;94.90;;;;;;5012138;28;20057;-68
2021/03/18 01:32:40;;;;;;;9.07;5.00;;;2.40;95.00;;;;;;5011604;28;20049;-68
2021/03/18 01:35:13;;;;;;;7.70;3.83;;;2.50;95.00;;;;;;5012055;28;20036;-71
2021/03/18 01:37:39;;;;;;;12.68;5.85;;;2.50;95.00;;;;;;5012652;28;20030;-68
2021/03/18 01:40:08;;;;;;;13.73;4.80;;;2.50;95.00;;;;;;5012072;28;20429;-68
2021/03/18 01:42:34;;;;;;;11.05;5.47;;;2.50;95.00;;;;;;5012523;28;20033;-68
2021/03/18 01:44:59;;;;;;;10.38;6.38;;;2.50;95.00;;;;;;5012401;28;20022;-68
2021/03/18 01:47:25;;;;;;;8.05;4.05;;;2.50;94.90;;;;;;5012425;28;20038;-68
2021/03/18 01:49:50;;;;;;;14.57;5.53;;;2.50;94.90;;;;;;5014531;28;20053;-68
2021/03/18 01:52:16;;;;;;;9.77;4.32;;;2.50;94.80;;;;;;5012348;28;20475;-68
2021/03/18 01:54:41;;;;;;;9.73;4.70;;;2.50;94.90;;;;;;5012942;28;20372;-78
2021/03/18 01:57:07;;;;;;;12.02;4.10;;;2.50;94.90;;;;;;5011611;28;20490;-68
2021/03/18 01:59:33;;;;;;;6.47;3.65;;;2.50;94.90;;;;;;5011823;28;20022;-76
2021/03/18 02:01:58;;;;;;;10.70;4.38;;;2.50;94.80;;;;;;5012853;28;20423;-68
2021/03/18 02:04:24;;;;;;;8.15;3.95;;;2.50;94.80;;;;;;5012375;28;20020;-69
2021/03/18 02:06:50;;;;;;;7.78;4.00;;;2.50;94.80;;;;;;5012240;28;20504;-72
2021/03/18 02:09:15;;;;;;;9.40;4.05;;;2.50;94.70;;;;;;5012307;28;20038;-76
2021/03/18 02:11:41;;;;;;;10.43;4.75;;;2.50;94.70;;;;;;5012779;28;20057;-75
2021/03/18 02:14:06;;;;;;;22.75;12.00;;;2.50;94.70;;;;;;5012348;28;20025;-76
2021/03/18 02:16:35;;;;;;;11.65;6.25;;;2.50;94.70;;;;;;5011520;28;20026;-71
2021/03/18 02:19:32;;;;;;;9.25;5.80;;;2.50;94.70;;;;;;5012311;28;20475;-69
2021/03/18 02:21:58;;;;;;;9.40;4.93;;;2.50;94.80;;;;;;5012648;28;20051;-73
2021/03/18 02:24:59;;;;;;;16.70;4.40;;;2.50;94.80;;;;;;5011997;28;20537;-73
2021/03/18 02:27:24;;;;;;;8.30;4.55;;;2.60;94.80;;;;;;5011667;28;20034;-73
2021/03/18 02:30:20;;;;;;;11.45;4.22;;;2.60;94.80;;;;;;5012428;28;20036;-76
2021/03/18 02:33:16;;;;;;;9.60;4.72;;;2.60;94.80;;;;;;5012162;28;20030;-72
2021/03/18 02:36:11;;;;;;;11.18;4.55;;;2.60;94.80;;;;;;5012360;28;20513;-68
2021/03/18 02:38:40;;;;;;;11.65;4.20;;;2.60;94.80;;;;;;5008917;28;20056;-79
2021/03/18 02:41:15;;;;;;;14.15;4.80;;;2.60;94.80;;;;;;5012540;28;20021;-67
2021/03/18 02:43:51;;;;;;;14.07;4.53;;;2.60;94.80;;;;;;5012348;28;20022;-77
2021/03/18 02:46:19;;;;;;;6.97;4.55;;;2.60;94.90;;;;;;5010093;28;20022;-73
2021/03/18 02:48:47;;;;;;;13.00;4.00;;;2.60;94.90;;;;;;5012153;28;20057;-68
2021/03/18 02:51:17;;;;;;;7.78;3.40;;;2.60;95.00;;;;;;5012028;28;20389;-69
2021/03/18 02:53:44;;;;;;;11.90;4.38;;;2.60;95.10;;;;;;5011446;28;20026;-68
2021/03/18 02:56:12;;;;;;;12.23;4.10;;;2.60;95.40;;;;;;5011058;28;20026;-82
2021/03/18 02:58:40;;;;;;;10.65;5.88;;;2.70;95.10;;;;;;5011130;28;20401;-69
2021/03/18 03:01:07;;;;;;;11.02;4.97;;;2.70;95.10;;;;;;5010966;28;20022;-77
2021/03/18 03:03:34;;;;;;;15.65;4.00;;;2.80;95.10;;;;;;5014197;28;20029;-69
2021/03/18 03:06:03;;;;;;;9.13;3.92;;;2.80;95.10;;;;;;5014928;28;20018;-78
2021/03/18 03:08:30;;;;;;;13.02;4.43;;;2.80;95.00;;;;;;5011716;28;20134;-68
2021/03/18 03:10:58;;;;;;;11.10;3.67;;;2.90;95.00;;;;;;5010848;28;20450;-68
2021/03/18 03:13:28;;;;;;;10.63;4.13;;;2.90;95.00;;;;;;5011554;28;20028;-69
2021/03/18 03:15:56;;;;;;;13.98;5.35;;;2.90;95.00;;;;;;5011419;28;20037;-68
2021/03/18 03:18:23;;;;;;;16.40;5.13;;;3.00;95.00;;;;;;5011447;28;20037;-68
2021/03/18 03:20:53;;;;;;;12.15;3.95;;;3.00;94.90;;;;;;5011426;28;20026;-67
2021/03/18 03:23:20;;;;;;;12.13;4.90;;;3.00;94.90;;;;;;5011568;28;20053;-67
2021/03/18 03:25:46;;;;;;;9.80;4.60;;;3.00;94.80;;;;;;5010701;28;20022;-67
2021/03/18 03:28:15;;;;;;;8.73;3.30;;;3.00;94.80;;;;;;5010105;28;20554;-67
2021/03/18 03:30:41;;;;;;;12.07;4.07;;;3.00;94.80;;;;;;5015656;28;20014;-68
2021/03/18 03:33:08;;;;;;;14.18;4.95;;;3.00;94.70;;;;;;5015748;28;20030;-71
2021/03/18 03:35:35;;;;;;;17.88;4.78;;;3.00;94.70;;;;;;5014937;28;20022;-66
2021/03/18 03:38:01;;;;;;;17.20;4.72;;;3.00;94.80;;;;;;5015350;28;20165;-67
2021/03/18 03:40:27;;;;;;;14.75;5.18;;;2.90;94.70;;;;;;5013689;28;20485;-67
2021/03/18 03:42:53;;;;;;;13.30;4.97;;;2.90;94.80;;;;;;5014687;28;20505;-67
2021/03/18 03:45:19;;;;;;;8.98;4.28;;;2.90;94.80;;;;;;5015164;28;20036;-76
2021/03/18 03:47:46;;;;;;;13.05;4.07;;;2.90;94.80;;;;;;5017200;28;20105;-80
2021/03/18 03:50:16;;;;;;;10.07;4.57;;;2.90;94.80;;;;;;5014216;28;20050;-73
2021/03/18 03:53:10;;;;;;;12.43;4.43;;;3.00;94.80;;;;;;5014168;28;20179;-68
2021/03/18 03:55:58;;;;;;;11.90;4.88;;;3.00;94.70;;;;;;5015208;28;20052;-69
2021/03/18 03:58:49;;;;;;;10.23;4.13;;;3.10;94.60;;;;;;5014665;28;20029;-69
2021/03/18 04:01:28;;;;;;;16.95;5.10;;;3.20;94.50;;;;;;5014956;28;20026;-70
2021/03/18 04:04:07;;;;;;;12.07;5.07;;;3.10;94.40;;;;;;5014309;28;20033;-67
2021/03/18 04:06:39;;;;;;;11.77;4.53;;;3.10;94.40;;;;;;5014702;28;20570;-76
2021/03/18 04:09:07;;;;;;;6.80;4.00;;;3.10;94.40;;;;;;5013674;28;20030;-70
2021/03/18 04:11:37;;;;;;;10.23;4.68;;;3.10;94.30;;;;;;5014300;28;20022;-68
2021/03/18 04:14:05;;;;;;;9.27;4.75;;;3.10;94.30;;;;;;5015673;28;20018;-67
2021/03/18 04:16:32;;;;;;;12.23;4.50;;;3.00;94.20;;;;;;5014427;28;20041;-68
2021/03/18 04:18:59;;;;;;;12.07;5.60;;;3.00;94.30;;;;;;5012872;28;20030;-67
2021/03/18 04:21:26;;;;;;;10.15;4.40;;;2.80;94.20;;;;;;5014331;28;20485;-71
2021/03/18 04:23:53;;;;;;;8.18;4.00;;;2.80;94.20;;;;;;5015207;28;20497;-68
2021/03/18 04:26:21;;;;;;;8.50;5.13;;;2.60;94.30;;;;;;5013750;28;20021;-69
2021/03/18 04:28:47;;;;;;;12.88;4.70;;;2.60;94.30;;;;;;5013339;28;20021;-71
2021/03/18 04:31:14;;;;;;;9.00;5.30;;;2.50;94.40;;;;;;5013698;28;20470;-67
2021/03/18 04:33:40;;;;;;;13.75;5.78;;;2.50;94.50;;;;;;5014499;28;20252;-68
2021/03/18 04:36:07;;;;;;;15.50;5.53;;;2.60;94.60;;;;;;5014438;28;20034;-67
2021/03/18 04:38:33;;;;;;;13.10;7.78;;;2.60;95.00;;;;;;5013343;28;20037;-68
2021/03/18 04:40:59;;;;;;;14.25;5.20;;;2.60;94.90;;;;;;5013891;28;20421;-75
2021/03/18 04:43:26;;;;;;;16.50;5.47;;;2.60;94.90;;;;;;5014292;28;20068;-73
2021/03/18 04:45:53;;;;;;;13.98;4.53;;;2.70;94.90;;;;;;5013901;28;20097;-83
2021/03/18 04:48:20;;;;;;;11.07;5.53;;;2.70;95.00;;;;;;5014282;28;20040;-68
2021/03/18 04:50:47;;;;;;;13.48;5.00;;;2.70;94.90;;;;;;5014898;28;20080;-81
2021/03/18 04:53:13;;;;;;;15.18;5.78;;;2.80;94.90;;;;;;5012390;28;20037;-74
2021/03/18 04:55:39;;;;;;;15.40;6.40;;;2.80;94.90;;;;;;5014059;28;20025;-69
2021/03/18 04:58:08;;;;;;;10.73;5.00;;;2.80;94.90;;;;;;5014123;28;20571;-80
2021/03/18 05:00:36;;;;;;;9.88;4.65;;;2.80;94.80;;;;;;5013166;28;20095;-71
2021/03/18 05:03:03;;;;;;;11.90;6.57;;;2.90;94.80;;;;;;5014041;28;20378;-67
2021/03/18 05:05:31;;;;;;;10.32;4.47;;;2.90;94.70;;;;;;5013472;28;20022;-67
2021/03/18 05:07:57;;;;;;;13.27;4.75;;;3.00;94.70;;;;;;5011915;28;20386;-77
2021/03/18 05:10:30;;;;;;;11.13;4.45;;;3.00;94.60;;;;;;5013331;28;20014;-71
2021/03/18 05:12:57;;;;;;;11.18;4.10;;;3.10;94.60;;;;;;5013888;28;20091;-70
2021/03/18 05:15:25;;;;;;;12.75;5.35;;;3.20;94.60;;;;;;5012597;28;20018;-68
2021/03/18 05:17:51;;;;;;;9.68;4.45;;;3.20;94.50;;;;;;5013636;28;20036;-70
2021/03/18 05:20:21;;;;;;;7.43;4.20;;;3.30;94.50;;;;;;5011973;28;20062;-76
2021/03/18 05:22:47;;;;;;;8.63;4.60;;;3.30;94.40;;;;;;5013801;28;20385;-78
2021/03/18 05:25:14;;;;;;;7.43;4.30;;;3.40;94.40;;;;;;5013219;28;20022;-82
2021/03/18 05:27:41;;;;;;;11.93;5.00;;;3.40;94.40;;;;;;5012599;28;20034;-68
2021/03/18 05:30:08;;;;;;;9.60;4.70;;;3.50;94.40;;;;;;5013439;28;20029;-74
2021/03/18 05:32:34;;;;;;;10.10;4.93;;;3.50;94.40;;;;;;5013406;28;20018;-70
2021/03/18 05:35:00;;;;;;;12.70;4.18;;;3.50;94.40;;;;;;5012997;28;20022;-79
2021/03/18 05:37:25;;;;;;;9.43;4.65;;;3.50;94.40;;;;;;5011672;28;20125;-70
2021/03/18 05:39:51;;;;;;;10.95;4.22;;;3.50;94.40;;;;;;5013041;28;20439;-83
2021/03/18 05:42:17;;;;;;;13.20;5.22;;;3.50;94.40;;;;;;5011889;28;20029;-67
2021/03/18 05:44:45;;;;;;;12.60;5.03;;;3.40;94.50;;;;;;5011497;28;20449;-67
2021/03/18 05:47:10;;;;;;;13.48;5.22;;;3.50;94.50;;;;;;5011723;28;20478;-68
2021/03/18 05:49:36;;;;;;;12.75;4.47;;;3.50;94.50;;;;;;5011143;28;20045;-68
2021/03/18 05:52:03;;;;;;;11.45;4.68;;;3.50;94.50;;;;;;5011629;28;20018;-68
2021/03/18 05:54:29;;;;;;;11.95;4.70;;;3.40;94.60;;;;;;5012347;28;20117;-68
2021/03/18 05:56:57;;;;;;;8.65;4.53;;;3.50;94.70;;;;;;5011664;28;20048;-70
2021/03/18 05:59:23;;;;;;;12.40;5.20;;;3.50;94.70;;;;;;5012747;28;20022;-68
2021/03/18 06:01:49;;;;;;;11.52;4.78;;;3.50;94.70;;;;;;5012664;28;20010;-68
2021/03/18 06:04:15;;;;;;;9.13;4.68;;;3.50;94.70;;;;;;5011810;28;20080;-68
2021/03/18 06:06:43;;;;;;;14.50;5.45;;;3.50;94.70;;;;;;5012857;28;20490;-72
2021/03/18 06:09:09;;;;;;;8.40;4.68;;;3.60;94.70;;;;;;5011200;28;20417;-67
2021/03/18 06:11:34;;;;;;;11.63;5.80;;;3.60;94.70;;;;;;5010733;28;20109;-68
2021/03/18 06:14:03;;;;;;;11.27;5.85;;;3.60;94.70;;;;;;5012695;28;20026;-67
2021/03/18 06:16:29;;;;;;;13.60;5.43;;;3.70;94.80;;;;;;5012330;28;20041;-67
2021/03/18 06:18:57;;;;;;;8.93;5.30;;;3.70;94.80;;;;;;5011810;28;20029;-67
2021/03/18 06:21:53;;;;;;;11.55;5.18;;;3.70;94.70;;;;;;5012303;28;20018;-71
2021/03/18 06:24:19;;;;;;;16.38;5.03;;;3.70;94.70;;;;;;5010499;28;20449;-79
2021/03/18 06:26:45;;;;;;;15.48;4.97;;;3.80;94.80;;;;;;5011343;28;20035;-68
2021/03/18 06:29:36;;;;;;;12.48;5.00;;;3.80;94.70;;;;;;5011233;28;20026;-80
2021/03/18 06:32:13;;;;;;;14.60;4.95;;;3.80;94.70;;;;;;5011995;28;20488;-67
2021/03/18 06:34:41;;;;;;;10.27;4.90;;;3.80;94.70;;;;;;5012388;28;20493;-76
2021/03/18 06:37:32;;;;;;;16.30;6.63;;;3.80;94.70;;;;;;5012290;28;20038;-67
2021/03/18 06:40:11;;;;;;;10.65;5.45;;;3.90;94.70;;;;;;5011792;28;20646;-68
2021/03/18 06:42:38;;;;;;;18.02;5.72;;;3.90;94.60;;;;;;5012534;28;20022;-79
2021/03/18 06:45:04;;;;;;;11.60;5.78;;;3.90;94.60;;;;;;5011777;28;20521;-79
2021/03/18 06:47:47;;;;;;;14.18;5.60;;;4.00;94.60;;;;;;5011916;28;20028;-67
2021/03/18 06:50:15;;;;;;;17.25;5.45;;;4.10;94.50;;;;;;5010525;28;20062;-82
2021/03/18 06:52:42;;;;;;;15.85;4.85;;;4.10;94.50;;;;;;5011554;28;20022;-70
2021/03/18 06:55:10;;;;;;;10.43;5.25;;;4.20;94.40;;;;;;5012398;28;20085;-68
2021/03/18 06:57:37;;;;;;;13.93;5.22;;;4.30;94.40;;;;;;5012047;28;20042;-78
2021/03/18 07:00:10;;;;;;;13.90;5.32;;;4.30;94.30;;;;;;5011561;28;20022;-68
2021/03/18 07:02:40;;;;;;;16.13;5.65;;;4.40;94.30;;;;;;5012988;28;20045;-67
2021/03/18 07:05:17;;;;;;;13.05;5.13;;;4.50;94.20;;;;;;5016780;28;20482;-74
2021/03/18 07:07:43;;;;;;;13.68;5.20;;;4.50;94.10;;;;;;5014300;28;20069;-72
2021/03/18 07:10:09;;;;;;;15.70;5.47;;;4.60;94.10;;;;;;5021089;28;20025;-67
2021/03/18 07:12:35;;;;;;;12.77;5.00;;;4.70;94.00;;;;;;5020379;28;20026;-67
2021/03/18 07:15:01;;;;;;;14.68;4.82;;;4.80;93.90;;;;;;5013902;28;20029;-76
2021/03/18 07:17:32;;;;;;;12.43;4.93;;;4.90;93.80;;;;;;5015536;28;20033;-67
2021/03/18 07:20:20;;;;;;;12.07;4.93;;;4.90;93.70;;;;;;5013783;28;20453;-66
2021/03/18 07:22:56;;;;;;;13.50;4.63;;;5.00;93.70;;;;;;5015541;28;20034;-74
2021/03/18 07:25:27;;;;;;;12.63;5.35;;;5.00;93.50;;;;;;5015289;28;20022;-67
2021/03/18 07:28:01;;;;;;;12.27;5.00;;;5.10;93.40;;;;;;5013756;28;20105;-74
2021/03/18 07:30:30;;;;;;;11.77;4.90;;;5.10;93.30;;;;;;5015231;28;20022;-68
2021/03/18 07:32:57;;;;;;;14.43;5.15;;;5.20;93.20;;;;;;5015470;28;20029;-75
2021/03/18 07:35:24;;;;;;;17.23;5.35;;;5.20;93.10;;;;;;5015599;28;20018;-72
2021/03/18 07:37:52;;;;;;;13.10;4.55;;;5.20;93.10;;;;;;5016698;28;20041;-71
2021/03/18 07:40:18;;;;;;;13.07;5.13;;;5.20;93.00;;;;;;5015197;28;20482;-67
2021/03/18 07:42:46;;;;;;;14.20;5.47;;;5.40;93.00;;;;;;5028395;28;20034;-77
2021/03/18 07:45:13;;;;;;;10.95;5.40;;;5.50;93.00;;;;;;5017674;28;20033;-67
2021/03/18 07:47:41;;;;;;;16.38;6.25;;;5.60;92.90;;;;;;5017275;28;20029;-69
2021/03/18 07:50:10;;;;;;;13.55;5.65;;;5.70;92.70;;;;;;5017119;28;20057;-69
2021/03/18 07:52:40;;;;;;;21.52;5.53;;;5.70;92.60;;;;;;5014823;28;20030;-70
2021/03/18 07:55:09;;;;;;;11.57;5.47;;;5.70;92.70;;;;;;5014824;28;20175;-72
2021/03/18 07:57:50;;;;;;;13.27;5.65;;;5.80;92.80;;;;;;5027820;28;20045;-68
2021/03/18 08:00:21;;;;;;;13.68;5.85;;;5.90;92.70;;;;;;5026094;28;20026;-70
2021/03/18 08:02:46;;;;;;;13.32;5.65;;;5.90;92.80;;;;;;5011449;28;20175;-72
2021/03/18 08:05:32;;;;;;;11.57;5.57;;;6.00;92.70;;;;;;5013188;28;20537;-69
2021/03/18 08:07:58;;;;;;;800.47;58.33;;;6.10;93.00;;;;;;5014401;28;20038;-74
2021/03/18 08:10:23;;;;;;;14.43;5.97;;;6.20;92.80;;;;;;5013868;28;20014;-68
2021/03/18 08:12:54;;;;;;;20.65;6.35;;;6.10;92.90;;;;;;5016268;28;20085;-71
2021/03/18 08:15:33;;;;;;;15.90;7.15;;;6.10;92.90;;;;;;5033734;28;20101;-70
2021/03/18 08:18:25;;;;;;;15.88;6.18;;;6.00;92.90;;;;;;5016917;28;20095;-74
2021/03/18 08:20:50;;;;;;;21.00;6.00;;;6.10;92.90;;;;;;5011161;28;20026;-70
2021/03/18 08:23:22;;;;;;;29.25;5.50;;;6.20;92.90;;;;;;5013687;28;20030;-70
2021/03/18 08:25:48;;;;;;;14.25;5.18;;;6.20;92.70;;;;;;5014221;28;20029;-69
2021/03/18 08:28:45;;;;;;;441.98;37.25;;;6.40;92.80;;;;;;5013984;28;20474;-75
2021/03/18 08:31:41;;;;;;;17.83;6.05;;;6.50;92.70;;;;;;5013488;28;20109;-70
2021/03/18 08:34:07;;;;;;;27.48;5.88;;;6.60;92.40;;;;;;5026920;28;20040;-68
2021/03/18 08:36:51;;;;;;;10.18;4.75;;;6.70;92.20;;;;;;5027870;28;20109;-74
2021/03/18 08:39:35;;;;;;;387.27;32.05;;;6.90;92.10;;;;;;5013202;28;20125;-76
2021/03/18 08:42:02;;;;;;;12.70;5.63;;;7.00;92.00;;;;;;5012197;28;20125;-70
2021/03/18 08:44:43;;;;;;;37.40;7.65;;;7.00;91.90;;;;;;5014085;28;20673;-72
2021/03/18 08:47:13;;;;;;;10.63;5.35;;;7.10;92.00;;;;;;5012290;28;20080;-73
2021/03/18 08:49:39;;;;;;;16.05;5.47;;;7.10;92.00;;;;;;5011848;28;20048;-70
2021/03/18 08:52:09;;;;;;;14.07;5.20;;;7.10;92.00;;;;;;5013406;28;20026;-70
2021/03/18 08:54:41;;;;;;;12.33;4.90;;;7.20;91.90;;;;;;5014942;28;20053;-71
2021/03/18 08:57:12;;;;;;;29.58;6.03;;;7.30;92.00;;;;;;5026239;28;20143;-73
2021/03/18 08:59:45;;;;;;;16.70;4.65;;;7.50;91.90;;;;;;5031344;28;20030;-69
2021/03/18 09:02:12;;;;;;;16.38;4.85;;;7.50;91.90;;;;;;5033200;28;20029;-69
2021/03/18 09:04:43;;;;;;;18.08;5.38;;;7.70;91.80;;;;;;5033283;28;20025;-71
2021/03/18 09:07:11;;;;;;;33.60;6.77;;;7.80;91.60;;;;;;5024127;28;20041;-69
2021/03/18 09:09:38;;;;;;;19.27;6.90;;;7.90;91.40;;;;;;5013293;28;20022;-73
2021/03/18 09:12:04;;;;;;;21.48;6.80;;;8.10;91.40;;;;;;5015369;28;20018;-73
2021/03/18 09:14:30;;;;;;;26.38;7.40;;;8.20;91.20;;;;;;5030338;28;20041;-68
2021/03/18 09:17:13;;;;;;;20.02;6.85;;;8.30;91.00;;;;;;5032004;28;20048;-71
2021/03/18 09:19:45;;;;;;;18.40;5.47;;;8.40;91.00;;;;;;5032299;28;20026;-74
2021/03/18 09:22:14;;;;;;;17.48;6.30;;;8.50;90.80;;;;;;5032842;28;20100;-77
2021/03/18 09:24:45;;;;;;;18.20;6.47;;;8.60;90.70;;;;;;5031903;28;20446;-69
2021/03/18 09:27:13;;;;;;;16.07;5.57;;;8.70;90.70;;;;;;5029946;28;20382;-75
2021/03/18 09:29:40;;;;;;;19.30;5.93;;;8.90;90.30;;;;;;5031646;28;20053;-74
2021/03/18 09:32:13;;;;;;;18.73;5.38;;;9.00;90.10;;;;;;5033230;28;20032;-79
2021/03/18 09:34:43;;;;;;;18.45;6.32;;;9.10;90.00;;;;;;5032186;28;20022;-72
2021/03/18 09:37:09;;;;;;;18.55;6.20;;;9.20;89.50;;;;;;5032704;28;20026;-71
2021/03/18 09:39:36;;;;;;;15.95;5.97;;;9.30;89.20;;;;;;5029565;28;20474;-72
2021/03/18 09:42:06;;;;;;;22.88;6.93;;;9.40;88.90;;;;;;5020383;28;20030;-72
2021/03/18 09:44:33;;;;;;;15.68;5.53;;;9.50;88.40;;;;;;5012530;28;20489;-75
2021/03/18 09:47:02;;;;;;;21.58;5.70;;;9.50;87.50;;;;;;5022102;28;20033;-78
2021/03/18 09:49:30;;;;;;;22.92;5.80;;;9.40;86.90;;;;;;5011760;28;20048;-69
2021/03/18 09:51:57;;;;;;;21.55;6.40;;;9.30;86.60;;;;;;5012993;28;20037;-71
2021/03/18 09:54:23;;;;;;;27.75;6.80;;;9.20;87.40;;;;;;5012528;28;20029;-73
2021/03/18 09:56:51;;;;;;;22.42;6.55;;;9.10;87.50;;;;;;5011900;28;20034;-70
2021/03/18 09:59:19;;;;;;;25.83;6.65;;;9.00;87.70;;;;;;5012480;28;20026;-70
2021/03/18 10:01:45;;;;;;;20.20;6.00;;;8.90;87.80;;;;;;5012121;28;20382;-73
2021/03/18 10:04:12;;;;;;;23.92;6.82;;;8.80;88.10;;;;;;5011206;28;20021;-70
2021/03/18 10:06:44;;;;;;;23.23;5.45;;;8.80;87.90;;;;;;5012643;28;20429;-75
2021/03/18 10:09:27;;;;;;;29.10;6.90;;;8.70;88.30;;;;;;5011804;28;20525;-73
2021/03/18 10:11:53;;;;;;;22.98;6.15;;;8.80;88.70;;;;;;5011477;28;20026;-68
2021/03/18 10:14:20;;;;;;;24.80;6.40;;;8.80;88.10;;;;;;5012548;28;20048;-72
2021/03/18 10:16:47;;;;;;;26.05;6.43;;;8.70;88.20;;;;;;5011798;28;20209;-69
2021/03/18 10:19:14;;;;;;;21.35;5.47;;;8.70;88.70;;;;;;5012116;28;20036;-71
2021/03/18 10:21:40;;;;;;;23.08;6.07;;;8.70;88.50;;;;;;5012360;28;20028;-69
2021/03/18 10:24:09;;;;;;;29.30;6.80;;;8.70;88.20;;;;;;5011812;28;20018;-67
2021/03/18 10:26:35;;;;;;;20.58;6.28;;;8.60;88.80;;;;;;5012447;28;20072;-72
2021/03/18 10:29:02;;;;;;;26.02;6.88;;;8.70;88.90;;;;;;5012359;28;20022;-69
2021/03/18 10:31:28;;;;;;;29.65;6.95;;;8.80;88.00;;;;;;5011260;28;20386;-71
2021/03/18 10:33:54;;;;;;;19.98;7.05;;;8.90;88.30;;;;;;5012346;28;20076;-71
2021/03/18 10:36:40;;;;;;;25.08;6.25;;;8.90;88.10;;;;;;5011849;28;20478;-66
2021/03/18 10:39:11;;;;;;;28.23;6.22;;;9.00;87.80;;;;;;5009488;28;20490;-76
2021/03/18 10:41:57;;;;;;;23.45;6.28;;;9.00;87.30;;;;;;5012214;28;20033;-69
2021/03/18 10:44:42;;;;;;;20.67;5.78;;;9.10;87.00;;;;;;5011091;28;20025;-68
2021/03/18 10:47:21;;;;;;;25.27;6.18;;;9.20;85.90;;;;;;5010932;28;20148;-70
2021/03/18 10:50:09;;;;;;;25.10;6.43;;;9.30;86.00;;;;;;5011890;28;20056;-68
2021/03/18 10:52:37;;;;;;;22.65;6.22;;;9.30;84.90;;;;;;5011433;28;20501;-69
2021/03/18 10:55:03;;;;;;;24.63;6.25;;;9.30;84.60;;;;;;5011123;28;20068;-77
2021/03/18 10:57:28;;;;;;;27.27;5.65;;;9.20;83.90;;;;;;5011571;28;20050;-77
2021/03/18 10:59:55;;;;;;;23.08;5.00;;;9.20;83.80;;;;;;5010219;28;20028;-78
2021/03/18 11:02:31;;;;;;;21.55;5.03;;;9.30;83.30;;;;;;5012008;28;20026;-77
2021/03/18 11:05:00;;;;;;;18.80;5.18;;;9.50;82.00;;;;;;5010605;28;20053;-70
2021/03/18 11:07:29;;;;;;;17.88;5.53;;;9.60;81.10;;;;;;5010480;28;20041;-66
2021/03/18 11:10:09;;;;;;;23.40;5.18;;;9.70;80.20;;;;;;5011856;28;20033;-77
2021/03/18 11:12:35;;;;;;;23.00;6.72;;;9.80;79.80;;;;;;5010063;28;20026;-72
2021/03/18 11:15:00;;;;;;;18.27;5.45;;;9.80;77.90;;;;;;5011955;28;20068;-71
2021/03/18 11:17:29;;;;;;;15.23;4.60;;;9.80;77.40;;;;;;5011441;28;20048;-75
2021/03/18 11:20:09;;;;;;;20.05;4.22;;;9.80;77.90;;;;;;5011049;28;20026;-69
2021/03/18 11:22:35;;;;;;;17.63;4.10;;;9.70;78.20;;;;;;5011796;28;20088;-69
2021/03/18 11:25:02;;;;;;;15.77;4.60;;;9.80;78.60;;;;;;5010499;28;20462;-75
2021/03/18 11:27:30;;;;;;;18.05;4.38;;;9.80;78.60;;;;;;5009328;28;20096;-70
2021/03/18 11:29:56;;;;;;;13.30;4.13;;;9.80;79.10;;;;;;5011754;28;20109;-69
2021/03/18 11:32:23;;;;;;;15.43;4.63;;;9.70;79.30;;;;;;5011670;28;20450;-70
2021/03/18 11:34:57;;;;;;;15.73;4.50;;;9.70;80.10;;;;;;5010004;28;20029;-68
2021/03/18 11:37:22;;;;;;;19.23;4.68;;;9.60;80.20;;;;;;5011106;28;20030;-68
2021/03/18 11:39:48;;;;;;;24.33;4.53;;;9.50;80.10;;;;;;5011648;28;20428;-71
2021/03/18 11:42:14;;;;;;;20.02;4.20;;;9.40;78.70;;;;;;5010984;28;20022;-68
2021/03/18 11:44:39;;;;;;;19.25;5.78;;;9.40;79.30;;;;;;5010227;28;20033;-74
2021/03/18 11:47:07;;;;;;;13.43;4.45;;;9.40;79.10;;;;;;5011859;28;20022;-75
2021/03/18 11:49:36;;;;;;;17.40;4.03;;;9.40;79.20;;;;;;5011530;28;20045;-75
2021/03/18 11:52:04;;;;;;;19.52;4.68;;;9.50;79.30;;;;;;5015047;28;20022;-70
2021/03/18 11:54:30;;;;;;;21.30;5.28;;;9.60;79.50;;;;;;5013961;28;20026;-68
2021/03/18 11:56:56;;;;;;;17.25;4.75;;;9.70;79.70;;;;;;5014956;28;20030;-72
2021/03/18 11:59:21;;;;;;;21.88;4.30;;;9.80;79.20;;;;;;5013607;28;20033;-72
2021/03/18 12:01:47;;;;;;;17.42;4.68;;;9.90;79.70;;;;;;5013213;28;20378;-68
2021/03/18 12:04:13;;;;;;;17.30;5.32;;;10.00;79.70;;;;;;5014689;28;20030;-74
2021/03/18 12:06:38;;;;;;;20.58;4.18;;;10.00;80.10;;;;;;5014751;28;20022;-70
2021/03/18 12:09:05;;;;;;;17.58;4.05;;;10.00;80.00;;;;;;5012913;28;20041;-73
2021/03/18 12:11:31;;;;;;;20.92;4.85;;;10.00;79.40;;;;;;5014848;28;20026;-75
2021/03/18 12:13:56;;;;;;;20.50;4.47;;;10.10;79.70;;;;;;5013574;28;20018;-74
2021/03/18 12:16:22;;;;;;;16.38;4.00;;;10.10;79.80;;;;;;5013703;28;20026;-69
2021/03/18 12:18:48;;;;;;;18.92;4.22;;;10.00;79.50;;;;;;5013346;28;20460;-73
2021/03/18 12:21:13;;;;;;;16.23;3.80;;;9.90;78.60;;;;;;5013012;28;20108;-76
2021/03/18 12:23:39;;;;;;;18.58;4.28;;;9.80;79.60;;;;;;5013700;28;20435;-75
2021/03/18 12:26:04;;;;;;;13.43;3.28;;;9.80;79.60;;;;;;5014877;28;20045;-70
2021/03/18 12:28:30;;;;;;;14.18;3.55;;;9.70;78.60;;;;;;5013905;28;20109;-71
2021/03/18 12:30:56;;;;;;;12.13;3.38;;;9.70;78.70;;;;;;5013819;28;20026;-73
2021/03/18 12:33:21;;;;;;;12.77;3.47;;;9.60;78.60;;;;;;5013988;28;20101;-69
2021/03/18 12:35:48;;;;;;;18.08;4.05;;;9.60;78.60;;;;;;5014312;28;20613;-74
2021/03/18 12:38:14;;;;;;;14.35;3.33;;;9.60;79.10;;;;;;5013252;28;20113;-72
2021/03/18 12:40:39;;;;;;;18.52;3.17;;;9.60;79.40;;;;;;5014157;28;20050;-69
2021/03/18 12:43:05;;;;;;;13.95;3.20;;;9.70;78.40;;;;;;5014317;28;20107;-73
2021/03/18 12:45:33;;;;;;;18.95;3.65;;;9.80;77.80;;;;;;5013187;28;20021;-75
2021/03/18 12:48:00;;;;;;;15.43;3.33;;;9.90;77.40;;;;;;5014353;28;20048;-71
2021/03/18 12:50:26;;;;;;;17.52;3.40;;;9.90;76.40;;;;;;5013664;28;20038;-76
2021/03/18 12:52:52;;;;;;;15.48;3.47;;;10.00;76.10;;;;;;5012180;28;20029;-78
2021/03/18 12:55:18;;;;;;;16.17;3.42;;;10.00;74.80;;;;;;5013589;28;20466;-72
2021/03/18 12:57:45;;;;;;;11.95;3.25;;;9.90;75.10;;;;;;5011853;28;20068;-71
2021/03/18 13:00:12;;;;;;;16.95;3.53;;;9.90;76.10;;;;;;5013308;28;20102;-70